sensor_id;sensor_type;location;lat;lon;timestamp;P1;durP1;ratioP1;P2;durP2;ratioP2
73571;SDS011;61854;48.510;-2.770;2023-09-30T00:00:36;12.90;;;2.47;;
73571;SDS011;61854;48.510;-2.770;2023-09-30T00:03:02;13.75;;;2.60;;
73571;SDS011;61854;48.510;-2.770;2023-09-30T00:05:28;12.95;;;2.50;;
73571;SDS011;61854;48.510;-2.770;2023-09-30T00:07:54;12.80;;;2.72;;
73571;SDS011;61854;48.510;-2.770;2023-09-30T00:10:19;14.27;;;2.60;;
73571;SDS011;61854;48.510;-2.770;2023-09-30T00:12:45;13.73;;;2.63;;
73571;SDS011;61854;48.510;-2.770;2023-09-30T00:15:11;16.23;;;2.55;;
73571;SDS011;61854;48.510;-2.770;2023-09-30T00:17:36;11.23;;;2.38;;
73571;SDS011;61854;48.510;-2.770;2023-09-30T00:20:02;17.40;;;2.50;;
73571;SDS011;61854;48.510;-2.770;2023-09-30T00:22:29;15.45;;;2.50;;
73571;SDS011;61854;48.510;-2.770;2023-09-30T00:24:55;11.07;;;2.40;;
73571;SDS011;61854;48.510;-2.770;2023-09-30T00:27:20;12.20;;;2.65;;
73571;SDS011;61854;48.510;-2.770;2023-09-30T00:29:47;13.57;;;2.40;;
73571;SDS011;61854;48.510;-2.770;2023-09-30T00:32:12;13.35;;;2.60;;
73571;SDS011;61854;48.510;-2.770;2023-09-30T00:34:38;12.90;;;2.65;;
73571;SDS011;61854;48.510;-2.770;2023-09-30T00:37:05;12.18;;;3.03;;
73571;SDS011;61854;48.510;-2.770;2023-09-30T00:39:32;11.50;;;2.22;;
73571;SDS011;61854;48.510;-2.770;2023-09-30T00:41:58;16.52;;;2.70;;
73571;SDS011;61854;48.510;-2.770;2023-09-30T00:44:26;10.45;;;2.58;;
73571;SDS011;61854;48.510;-2.770;2023-09-30T00:46:52;12.02;;;2.17;;
73571;SDS011;61854;48.510;-2.770;2023-09-30T00:49:20;8.23;;;1.95;;
73571;SDS011;61854;48.510;-2.770;2023-09-30T00:51:47;8.73;;;2.20;;
73571;SDS011;61854;48.510;-2.770;2023-09-30T00:54:14;16.80;;;2.60;;
73571;SDS011;61854;48.510;-2.770;2023-09-30T00:56:43;13.68;;;2.30;;
73571;SDS011;61854;48.510;-2.770;2023-09-30T00:59:11;18.25;;;3.05;;
73571;SDS011;61854;48.510;-2.770;2023-09-30T01:01:37;12.23;;;2.47;;
73571;SDS011;61854;48.510;-2.770;2023-09-30T01:04:04;14.25;;;2.65;;
73571;SDS011;61854;48.510;-2.770;2023-09-30T01:06:30;14.23;;;2.35;;
73571;SDS011;61854;48.510;-2.770;2023-09-30T01:08:56;13.10;;;2.70;;
73571;SDS011;61854;48.510;-2.770;2023-09-30T01:11:22;16.27;;;2.55;;
73571;SDS011;61854;48.510;-2.770;2023-09-30T01:13:48;9.90;;;2.47;;
73571;SDS011;61854;48.510;-2.770;2023-09-30T01:16:14;12.52;;;2.88;;
73571;SDS011;61854;48.510;-2.770;2023-09-30T01:18:40;12.35;;;2.50;;
73571;SDS011;61854;48.510;-2.770;2023-09-30T01:21:07;14.57;;;2.45;;
73571;SDS011;61854;48.510;-2.770;2023-09-30T01:23:33;9.75;;;2.35;;
73571;SDS011;61854;48.510;-2.770;2023-09-30T01:26:03;14.60;;;2.45;;
73571;SDS011;61854;48.510;-2.770;2023-09-30T01:28:38;10.65;;;2.13;;
73571;SDS011;61854;48.510;-2.770;2023-09-30T01:31:04;16.70;;;2.28;;
73571;SDS011;61854;48.510;-2.770;2023-09-30T01:33:31;14.27;;;2.40;;
73571;SDS011;61854;48.510;-2.770;2023-09-30T01:35:57;15.70;;;2.65;;
73571;SDS011;61854;48.510;-2.770;2023-09-30T01:38:24;15.90;;;2.90;;
73571;SDS011;61854;48.510;-2.770;2023-09-30T01:40:50;12.50;;;2.40;;
73571;SDS011;61854;48.510;-2.770;2023-09-30T01:43:17;13.48;;;2.28;;
73571;SDS011;61854;48.510;-2.770;2023-09-30T01:45:43;12.00;;;2.47;;
73571;SDS011;61854;48.510;-2.770;2023-09-30T01:48:09;11.85;;;2.38;;
73571;SDS011;61854;48.510;-2.770;2023-09-30T01:50:39;8.52;;;1.90;;
73571;SDS011;61854;48.510;-2.770;2023-09-30T01:53:06;12.38;;;2.28;;
73571;SDS011;61854;48.510;-2.770;2023-09-30T01:55:32;11.02;;;2.28;;
73571;SDS011;61854;48.510;-2.770;2023-09-30T01:57:59;12.88;;;2.38;;
73571;SDS011;61854;48.510;-2.770;2023-09-30T02:00:24;14.35;;;2.00;;
73571;SDS011;61854;48.510;-2.770;2023-09-30T02:02:50;12.00;;;2.15;;
73571;SDS011;61854;48.510;-2.770;2023-09-30T02:05:16;14.65;;;2.42;;
73571;SDS011;61854;48.510;-2.770;2023-09-30T02:07:41;13.23;;;2.35;;
73571;SDS011;61854;48.510;-2.770;2023-09-30T02:10:07;10.75;;;2.60;;
73571;SDS011;61854;48.510;-2.770;2023-09-30T02:12:33;12.48;;;2.30;;
73571;SDS011;61854;48.510;-2.770;2023-09-30T02:14:59;12.93;;;2.42;;
73571;SDS011;61854;48.510;-2.770;2023-09-30T02:17:25;15.90;;;2.75;;
73571;SDS011;61854;48.510;-2.770;2023-09-30T02:19:50;11.93;;;2.33;;
73571;SDS011;61854;48.510;-2.770;2023-09-30T02:22:18;13.85;;;2.47;;
73571;SDS011;61854;48.510;-2.770;2023-09-30T02:24:44;15.35;;;2.60;;
73571;SDS011;61854;48.510;-2.770;2023-09-30T02:27:09;13.60;;;2.30;;
73571;SDS011;61854;48.510;-2.770;2023-09-30T02:29:35;15.10;;;2.60;;
73571;SDS011;61854;48.510;-2.770;2023-09-30T02:32:00;17.50;;;3.05;;
73571;SDS011;61854;48.510;-2.770;2023-09-30T02:34:26;13.80;;;2.50;;
73571;SDS011;61854;48.510;-2.770;2023-09-30T02:36:52;14.45;;;2.35;;
73571;SDS011;61854;48.510;-2.770;2023-09-30T02:39:20;16.40;;;2.45;;
73571;SDS011;61854;48.510;-2.770;2023-09-30T02:41:46;10.77;;;2.15;;
73571;SDS011;61854;48.510;-2.770;2023-09-30T02:44:14;13.40;;;2.85;;
73571;SDS011;61854;48.510;-2.770;2023-09-30T02:46:40;9.30;;;2.20;;
73571;SDS011;61854;48.510;-2.770;2023-09-30T02:49:05;11.38;;;2.20;;
73571;SDS011;61854;48.510;-2.770;2023-09-30T02:51:32;11.93;;;2.42;;
73571;SDS011;61854;48.510;-2.770;2023-09-30T02:53:57;8.85;;;2.33;;
73571;SDS011;61854;48.510;-2.770;2023-09-30T02:56:23;12.20;;;2.30;;
73571;SDS011;61854;48.510;-2.770;2023-09-30T02:58:49;11.43;;;2.08;;
73571;SDS011;61854;48.510;-2.770;2023-09-30T03:01:16;13.02;;;2.00;;
73571;SDS011;61854;48.510;-2.770;2023-09-30T03:03:42;12.63;;;2.47;;
73571;SDS011;61854;48.510;-2.770;2023-09-30T03:06:11;19.92;;;2.55;;
73571;SDS011;61854;48.510;-2.770;2023-09-30T03:08:37;14.63;;;2.22;;
73571;SDS011;61854;48.510;-2.770;2023-09-30T03:11:03;13.70;;;2.47;;
73571;SDS011;61854;48.510;-2.770;2023-09-30T03:13:29;10.20;;;2.60;;
73571;SDS011;61854;48.510;-2.770;2023-09-30T03:15:55;12.27;;;2.25;;
73571;SDS011;61854;48.510;-2.770;2023-09-30T03:18:22;15.70;;;2.33;;
73571;SDS011;61854;48.510;-2.770;2023-09-30T03:20:51;19.85;;;2.45;;
73571;SDS011;61854;48.510;-2.770;2023-09-30T03:23:25;13.20;;;2.90;;
73571;SDS011;61854;48.510;-2.770;2023-09-30T03:25:57;13.25;;;2.78;;
73571;SDS011;61854;48.510;-2.770;2023-09-30T03:28:23;15.13;;;2.53;;
73571;SDS011;61854;48.510;-2.770;2023-09-30T03:30:49;12.23;;;2.40;;
73571;SDS011;61854;48.510;-2.770;2023-09-30T03:33:15;16.55;;;2.53;;
73571;SDS011;61854;48.510;-2.770;2023-09-30T03:35:41;10.63;;;2.03;;
73571;SDS011;61854;48.510;-2.770;2023-09-30T03:38:06;15.75;;;2.65;;
73571;SDS011;61854;48.510;-2.770;2023-09-30T03:40:34;13.43;;;2.45;;
73571;SDS011;61854;48.510;-2.770;2023-09-30T03:43:03;17.15;;;2.83;;
73571;SDS011;61854;48.510;-2.770;2023-09-30T03:45:32;15.95;;;2.42;;
73571;SDS011;61854;48.510;-2.770;2023-09-30T03:47:58;12.15;;;2.72;;
73571;SDS011;61854;48.510;-2.770;2023-09-30T03:50:23;13.32;;;2.45;;
73571;SDS011;61854;48.510;-2.770;2023-09-30T03:52:49;17.33;;;2.95;;
73571;SDS011;61854;48.510;-2.770;2023-09-30T03:55:16;14.68;;;2.17;;
73571;SDS011;61854;48.510;-2.770;2023-09-30T03:57:46;14.82;;;2.28;;
73571;SDS011;61854;48.510;-2.770;2023-09-30T04:00:13;16.85;;;2.55;;
73571;SDS011;61854;48.510;-2.770;2023-09-30T04:02:42;16.90;;;2.88;;
73571;SDS011;61854;48.510;-2.770;2023-09-30T04:05:08;14.07;;;2.05;;
73571;SDS011;61854;48.510;-2.770;2023-09-30T04:07:39;14.48;;;2.28;;
73571;SDS011;61854;48.510;-2.770;2023-09-30T04:10:05;11.57;;;2.20;;
73571;SDS011;61854;48.510;-2.770;2023-09-30T04:12:31;11.98;;;2.40;;
73571;SDS011;61854;48.510;-2.770;2023-09-30T04:14:57;12.88;;;2.33;;
73571;SDS011;61854;48.510;-2.770;2023-09-30T04:17:23;12.43;;;2.40;;
73571;SDS011;61854;48.510;-2.770;2023-09-30T04:19:49;13.65;;;2.63;;
73571;SDS011;61854;48.510;-2.770;2023-09-30T04:22:17;14.68;;;2.33;;
73571;SDS011;61854;48.510;-2.770;2023-09-30T04:24:44;12.13;;;2.20;;
73571;SDS011;61854;48.510;-2.770;2023-09-30T04:27:10;21.13;;;2.42;;
73571;SDS011;61854;48.510;-2.770;2023-09-30T04:29:36;14.23;;;2.33;;
73571;SDS011;61854;48.510;-2.770;2023-09-30T04:32:02;18.95;;;2.63;;
73571;SDS011;61854;48.510;-2.770;2023-09-30T04:34:29;18.95;;;2.80;;
73571;SDS011;61854;48.510;-2.770;2023-09-30T04:36:55;11.48;;;2.22;;
73571;SDS011;61854;48.510;-2.770;2023-09-30T04:39:22;17.65;;;2.72;;
73571;SDS011;61854;48.510;-2.770;2023-09-30T04:41:48;18.33;;;3.10;;
73571;SDS011;61854;48.510;-2.770;2023-09-30T04:44:14;17.02;;;2.40;;
73571;SDS011;61854;48.510;-2.770;2023-09-30T04:46:40;18.85;;;3.10;;
73571;SDS011;61854;48.510;-2.770;2023-09-30T04:49:08;13.38;;;2.30;;
73571;SDS011;61854;48.510;-2.770;2023-09-30T04:53:59;10.73;;;1.92;;
73571;SDS011;61854;48.510;-2.770;2023-09-30T04:56:26;12.48;;;2.10;;
73571;SDS011;61854;48.510;-2.770;2023-09-30T04:58:52;13.23;;;2.10;;
73571;SDS011;61854;48.510;-2.770;2023-09-30T05:01:18;14.98;;;2.97;;
73571;SDS011;61854;48.510;-2.770;2023-09-30T05:03:46;9.82;;;2.45;;
73571;SDS011;61854;48.510;-2.770;2023-09-30T05:06:14;10.00;;;1.75;;
73571;SDS011;61854;48.510;-2.770;2023-09-30T05:08:40;11.82;;;2.15;;
73571;SDS011;61854;48.510;-2.770;2023-09-30T05:11:06;9.95;;;2.05;;
73571;SDS011;61854;48.510;-2.770;2023-09-30T05:13:32;10.48;;;1.95;;
73571;SDS011;61854;48.510;-2.770;2023-09-30T05:15:59;13.60;;;2.67;;
73571;SDS011;61854;48.510;-2.770;2023-09-30T05:18:25;11.10;;;2.08;;
73571;SDS011;61854;48.510;-2.770;2023-09-30T05:20:50;12.98;;;2.30;;
73571;SDS011;61854;48.510;-2.770;2023-09-30T05:23:16;7.93;;;1.65;;
73571;SDS011;61854;48.510;-2.770;2023-09-30T05:25:44;11.65;;;2.40;;
73571;SDS011;61854;48.510;-2.770;2023-09-30T05:28:09;11.50;;;2.28;;
73571;SDS011;61854;48.510;-2.770;2023-09-30T05:30:36;11.68;;;2.00;;
73571;SDS011;61854;48.510;-2.770;2023-09-30T05:33:02;13.88;;;2.67;;
73571;SDS011;61854;48.510;-2.770;2023-09-30T05:35:28;12.18;;;2.00;;
73571;SDS011;61854;48.510;-2.770;2023-09-30T05:40:22;10.70;;;2.08;;
73571;SDS011;61854;48.510;-2.770;2023-09-30T05:42:50;9.27;;;1.90;;
73571;SDS011;61854;48.510;-2.770;2023-09-30T05:45:17;9.35;;;2.10;;
73571;SDS011;61854;48.510;-2.770;2023-09-30T05:47:42;12.10;;;2.00;;
73571;SDS011;61854;48.510;-2.770;2023-09-30T05:50:09;15.40;;;2.75;;
73571;SDS011;61854;48.510;-2.770;2023-09-30T05:52:39;12.30;;;2.05;;
73571;SDS011;61854;48.510;-2.770;2023-09-30T05:55:05;10.20;;;2.80;;
73571;SDS011;61854;48.510;-2.770;2023-09-30T05:57:31;11.70;;;2.38;;
73571;SDS011;61854;48.510;-2.770;2023-09-30T05:59:57;14.02;;;2.15;;
73571;SDS011;61854;48.510;-2.770;2023-09-30T06:02:23;15.60;;;2.58;;
73571;SDS011;61854;48.510;-2.770;2023-09-30T06:04:50;14.55;;;2.40;;
73571;SDS011;61854;48.510;-2.770;2023-09-30T06:07:18;12.13;;;2.42;;
73571;SDS011;61854;48.510;-2.770;2023-09-30T06:09:45;12.88;;;2.58;;
73571;SDS011;61854;48.510;-2.770;2023-09-30T06:12:12;8.52;;;2.08;;
73571;SDS011;61854;48.510;-2.770;2023-09-30T06:14:37;8.48;;;1.73;;
73571;SDS011;61854;48.510;-2.770;2023-09-30T06:17:04;11.82;;;2.47;;
73571;SDS011;61854;48.510;-2.770;2023-09-30T06:19:30;9.40;;;1.92;;
73571;SDS011;61854;48.510;-2.770;2023-09-30T06:21:56;12.10;;;2.17;;
73571;SDS011;61854;48.510;-2.770;2023-09-30T06:24:21;12.68;;;2.30;;
73571;SDS011;61854;48.510;-2.770;2023-09-30T06:26:47;15.52;;;2.00;;
73571;SDS011;61854;48.510;-2.770;2023-09-30T06:29:16;15.00;;;2.25;;
73571;SDS011;61854;48.510;-2.770;2023-09-30T06:31:42;11.32;;;2.30;;
73571;SDS011;61854;48.510;-2.770;2023-09-30T06:34:08;10.07;;;2.13;;
73571;SDS011;61854;48.510;-2.770;2023-09-30T06:36:36;14.40;;;2.50;;
73571;SDS011;61854;48.510;-2.770;2023-09-30T06:39:02;11.75;;;2.30;;
73571;SDS011;61854;48.510;-2.770;2023-09-30T06:41:30;8.77;;;2.47;;
73571;SDS011;61854;48.510;-2.770;2023-09-30T06:43:56;11.93;;;2.30;;
73571;SDS011;61854;48.510;-2.770;2023-09-30T06:46:22;11.70;;;2.15;;
73571;SDS011;61854;48.510;-2.770;2023-09-30T06:48:49;11.85;;;2.30;;
73571;SDS011;61854;48.510;-2.770;2023-09-30T06:51:17;20.80;;;2.88;;
73571;SDS011;61854;48.510;-2.770;2023-09-30T06:53:43;10.23;;;1.88;;
73571;SDS011;61854;48.510;-2.770;2023-09-30T06:56:08;9.02;;;2.30;;
73571;SDS011;61854;48.510;-2.770;2023-09-30T06:58:34;12.80;;;2.55;;
73571;SDS011;61854;48.510;-2.770;2023-09-30T07:01:03;13.20;;;2.42;;
73571;SDS011;61854;48.510;-2.770;2023-09-30T07:05:55;12.65;;;2.65;;
73571;SDS011;61854;48.510;-2.770;2023-09-30T07:08:22;12.98;;;2.17;;
73571;SDS011;61854;48.510;-2.770;2023-09-30T07:10:47;10.60;;;2.53;;
73571;SDS011;61854;48.510;-2.770;2023-09-30T07:13:17;10.52;;;2.45;;
73571;SDS011;61854;48.510;-2.770;2023-09-30T07:15:43;13.73;;;2.63;;
73571;SDS011;61854;48.510;-2.770;2023-09-30T07:18:09;15.50;;;2.88;;
73571;SDS011;61854;48.510;-2.770;2023-09-30T07:20:35;12.98;;;2.55;;
73571;SDS011;61854;48.510;-2.770;2023-09-30T07:23:00;11.32;;;2.50;;
73571;SDS011;61854;48.510;-2.770;2023-09-30T07:25:26;13.75;;;2.58;;
73571;SDS011;61854;48.510;-2.770;2023-09-30T07:27:52;11.40;;;3.10;;
73571;SDS011;61854;48.510;-2.770;2023-09-30T07:30:18;14.15;;;3.05;;
73571;SDS011;61854;48.510;-2.770;2023-09-30T07:32:44;11.60;;;2.58;;
73571;SDS011;61854;48.510;-2.770;2023-09-30T07:35:11;13.50;;;3.17;;
73571;SDS011;61854;48.510;-2.770;2023-09-30T07:37:37;15.48;;;2.88;;
73571;SDS011;61854;48.510;-2.770;2023-09-30T07:40:03;12.63;;;2.70;;
73571;SDS011;61854;48.510;-2.770;2023-09-30T07:42:30;20.13;;;3.15;;
73571;SDS011;61854;48.510;-2.770;2023-09-30T07:44:55;9.80;;;2.42;;
73571;SDS011;61854;48.510;-2.770;2023-09-30T07:47:21;13.50;;;2.78;;
73571;SDS011;61854;48.510;-2.770;2023-09-30T07:49:47;12.05;;;2.83;;
73571;SDS011;61854;48.510;-2.770;2023-09-30T07:52:12;13.98;;;3.17;;
73571;SDS011;61854;48.510;-2.770;2023-09-30T07:54:38;15.18;;;3.05;;
73571;SDS011;61854;48.510;-2.770;2023-09-30T07:57:03;17.65;;;3.20;;
73571;SDS011;61854;48.510;-2.770;2023-09-30T07:59:29;10.68;;;2.65;;
73571;SDS011;61854;48.510;-2.770;2023-09-30T08:01:55;9.70;;;2.53;;
73571;SDS011;61854;48.510;-2.770;2023-09-30T08:04:22;15.43;;;3.03;;
73571;SDS011;61854;48.510;-2.770;2023-09-30T08:06:48;14.15;;;3.30;;
73571;SDS011;61854;48.510;-2.770;2023-09-30T08:09:14;14.95;;;2.90;;
73571;SDS011;61854;48.510;-2.770;2023-09-30T08:11:40;15.18;;;3.35;;
73571;SDS011;61854;48.510;-2.770;2023-09-30T08:14:06;14.38;;;3.15;;
73571;SDS011;61854;48.510;-2.770;2023-09-30T08:16:34;15.10;;;3.15;;
73571;SDS011;61854;48.510;-2.770;2023-09-30T08:19:00;14.13;;;2.70;;
73571;SDS011;61854;48.510;-2.770;2023-09-30T08:21:26;10.30;;;3.17;;
73571;SDS011;61854;48.510;-2.770;2023-09-30T08:23:52;12.23;;;3.35;;
73571;SDS011;61854;48.510;-2.770;2023-09-30T08:26:17;16.42;;;3.90;;
73571;SDS011;61854;48.510;-2.770;2023-09-30T08:28:43;11.93;;;3.45;;
73571;SDS011;61854;48.510;-2.770;2023-09-30T08:31:08;15.43;;;3.55;;
73571;SDS011;61854;48.510;-2.770;2023-09-30T08:33:34;15.43;;;3.53;;
73571;SDS011;61854;48.510;-2.770;2023-09-30T08:36:04;13.18;;;3.47;;
73571;SDS011;61854;48.510;-2.770;2023-09-30T08:38:33;13.98;;;4.07;;
73571;SDS011;61854;48.510;-2.770;2023-09-30T08:41:02;15.80;;;3.92;;
73571;SDS011;61854;48.510;-2.770;2023-09-30T08:43:28;15.73;;;3.90;;
73571;SDS011;61854;48.510;-2.770;2023-09-30T08:45:56;14.45;;;4.13;;
73571;SDS011;61854;48.510;-2.770;2023-09-30T08:48:23;16.60;;;4.05;;
73571;SDS011;61854;48.510;-2.770;2023-09-30T08:50:52;16.70;;;3.85;;
73571;SDS011;61854;48.510;-2.770;2023-09-30T08:55:45;14.15;;;3.80;;
73571;SDS011;61854;48.510;-2.770;2023-09-30T08:58:12;15.55;;;3.47;;
73571;SDS011;61854;48.510;-2.770;2023-09-30T09:00:38;14.88;;;4.03;;
73571;SDS011;61854;48.510;-2.770;2023-09-30T09:03:06;18.40;;;4.47;;
73571;SDS011;61854;48.510;-2.770;2023-09-30T09:05:32;16.23;;;4.55;;
73571;SDS011;61854;48.510;-2.770;2023-09-30T09:07:58;14.70;;;4.40;;
73571;SDS011;61854;48.510;-2.770;2023-09-30T09:10:24;16.73;;;4.72;;
73571;SDS011;61854;48.510;-2.770;2023-09-30T09:12:56;13.55;;;4.70;;
73571;SDS011;61854;48.510;-2.770;2023-09-30T09:15:27;12.52;;;4.50;;
73571;SDS011;61854;48.510;-2.770;2023-09-30T09:17:56;15.60;;;4.97;;
73571;SDS011;61854;48.510;-2.770;2023-09-30T09:20:22;14.48;;;4.30;;
73571;SDS011;61854;48.510;-2.770;2023-09-30T09:22:51;18.58;;;4.85;;
73571;SDS011;61854;48.510;-2.770;2023-09-30T09:25:19;14.02;;;4.57;;
73571;SDS011;61854;48.510;-2.770;2023-09-30T09:27:48;16.60;;;4.32;;
73571;SDS011;61854;48.510;-2.770;2023-09-30T09:30:17;10.77;;;3.67;;
73571;SDS011;61854;48.510;-2.770;2023-09-30T09:33:00;11.15;;;4.28;;
73571;SDS011;61854;48.510;-2.770;2023-09-30T09:38:03;18.17;;;4.80;;
73571;SDS011;61854;48.510;-2.770;2023-09-30T09:40:31;14.82;;;5.03;;
73571;SDS011;61854;48.510;-2.770;2023-09-30T09:42:58;15.73;;;4.37;;
73571;SDS011;61854;48.510;-2.770;2023-09-30T09:45:27;13.20;;;4.60;;
73571;SDS011;61854;48.510;-2.770;2023-09-30T09:47:53;18.58;;;5.20;;
73571;SDS011;61854;48.510;-2.770;2023-09-30T09:50:20;14.63;;;5.53;;
73571;SDS011;61854;48.510;-2.770;2023-09-30T09:52:50;17.05;;;5.88;;
73571;SDS011;61854;48.510;-2.770;2023-09-30T09:55:17;12.93;;;5.15;;
73571;SDS011;61854;48.510;-2.770;2023-09-30T09:57:44;18.37;;;5.80;;
73571;SDS011;61854;48.510;-2.770;2023-09-30T10:00:11;16.02;;;5.38;;
73571;SDS011;61854;48.510;-2.770;2023-09-30T10:02:42;15.68;;;4.88;;
73571;SDS011;61854;48.510;-2.770;2023-09-30T10:05:08;14.05;;;5.55;;
73571;SDS011;61854;48.510;-2.770;2023-09-30T10:07:37;12.13;;;4.97;;
73571;SDS011;61854;48.510;-2.770;2023-09-30T10:10:10;12.90;;;5.15;;
73571;SDS011;61854;48.510;-2.770;2023-09-30T10:12:38;15.20;;;5.65;;
73571;SDS011;61854;48.510;-2.770;2023-09-30T10:15:47;16.40;;;5.65;;
73571;SDS011;61854;48.510;-2.770;2023-09-30T10:18:03;16.90;;;5.80;;
73571;SDS011;61854;48.510;-2.770;2023-09-30T10:25:42;17.90;;;5.57;;
73571;SDS011;61854;48.510;-2.770;2023-09-30T10:36:47;16.15;;;5.43;;
73571;SDS011;61854;48.510;-2.770;2023-09-30T10:42:01;16.65;;;6.22;;
73571;SDS011;61854;48.510;-2.770;2023-09-30T10:51:52;17.98;;;6.13;;
73571;SDS011;61854;48.510;-2.770;2023-09-30T10:54:38;16.35;;;6.60;;
73571;SDS011;61854;48.510;-2.770;2023-09-30T10:57:03;14.73;;;6.45;;
73571;SDS011;61854;48.510;-2.770;2023-09-30T10:59:29;16.38;;;4.82;;
73571;SDS011;61854;48.510;-2.770;2023-09-30T11:01:55;18.73;;;6.32;;
73571;SDS011;61854;48.510;-2.770;2023-09-30T11:04:21;14.98;;;6.30;;
73571;SDS011;61854;48.510;-2.770;2023-09-30T11:06:47;17.13;;;6.75;;
73571;SDS011;61854;48.510;-2.770;2023-09-30T11:09:17;15.30;;;5.93;;
73571;SDS011;61854;48.510;-2.770;2023-09-30T11:14:18;17.55;;;5.70;;
73571;SDS011;61854;48.510;-2.770;2023-09-30T11:16:55;15.93;;;5.68;;
73571;SDS011;61854;48.510;-2.770;2023-09-30T11:21:49;14.45;;;5.57;;
73571;SDS011;61854;48.510;-2.770;2023-09-30T11:24:16;17.48;;;6.25;;
73571;SDS011;61854;48.510;-2.770;2023-09-30T11:26:42;21.35;;;6.60;;
73571;SDS011;61854;48.510;-2.770;2023-09-30T11:31:42;16.40;;;6.63;;
73571;SDS011;61854;48.510;-2.770;2023-09-30T11:34:09;17.25;;;6.30;;
73571;SDS011;61854;48.510;-2.770;2023-09-30T11:36:37;15.65;;;5.88;;
73571;SDS011;61854;48.510;-2.770;2023-09-30T11:39:05;15.65;;;6.22;;
73571;SDS011;61854;48.510;-2.770;2023-09-30T11:41:34;15.57;;;5.93;;
73571;SDS011;61854;48.510;-2.770;2023-09-30T11:51:51;22.58;;;6.43;;
73571;SDS011;61854;48.510;-2.770;2023-09-30T11:54:17;17.70;;;6.90;;
73571;SDS011;61854;48.510;-2.770;2023-09-30T11:56:43;18.23;;;6.75;;
73571;SDS011;61854;48.510;-2.770;2023-09-30T11:59:10;22.73;;;6.43;;
73571;SDS011;61854;48.510;-2.770;2023-09-30T12:01:38;18.77;;;6.15;;
73571;SDS011;61854;48.510;-2.770;2023-09-30T12:04:04;17.08;;;6.80;;
73571;SDS011;61854;48.510;-2.770;2023-09-30T12:06:31;19.58;;;6.43;;
73571;SDS011;61854;48.510;-2.770;2023-09-30T12:08:59;16.83;;;5.90;;
73571;SDS011;61854;48.510;-2.770;2023-09-30T12:11:25;17.88;;;6.13;;
73571;SDS011;61854;48.510;-2.770;2023-09-30T12:13:50;18.92;;;6.55;;
73571;SDS011;61854;48.510;-2.770;2023-09-30T12:16:16;17.65;;;6.40;;
73571;SDS011;61854;48.510;-2.770;2023-09-30T12:18:42;14.27;;;6.22;;
73571;SDS011;61854;48.510;-2.770;2023-09-30T12:21:11;20.75;;;6.85;;
73571;SDS011;61854;48.510;-2.770;2023-09-30T12:23:38;15.20;;;6.28;;
73571;SDS011;61854;48.510;-2.770;2023-09-30T12:26:04;14.90;;;6.10;;
73571;SDS011;61854;48.510;-2.770;2023-09-30T12:28:33;15.38;;;6.50;;
73571;SDS011;61854;48.510;-2.770;2023-09-30T12:31:01;19.70;;;7.10;;
73571;SDS011;61854;48.510;-2.770;2023-09-30T12:33:28;17.05;;;6.70;;
73571;SDS011;61854;48.510;-2.770;2023-09-30T12:35:55;15.75;;;6.22;;
73571;SDS011;61854;48.510;-2.770;2023-09-30T12:38:21;18.85;;;7.00;;
73571;SDS011;61854;48.510;-2.770;2023-09-30T12:40:47;17.50;;;6.68;;
73571;SDS011;61854;48.510;-2.770;2023-09-30T12:43:13;17.15;;;6.53;;
73571;SDS011;61854;48.510;-2.770;2023-09-30T12:45:39;16.95;;;6.95;;
73571;SDS011;61854;48.510;-2.770;2023-09-30T12:48:04;16.98;;;6.20;;
73571;SDS011;61854;48.510;-2.770;2023-09-30T12:50:30;17.88;;;6.65;;
73571;SDS011;61854;48.510;-2.770;2023-09-30T12:52:56;14.27;;;6.32;;
73571;SDS011;61854;48.510;-2.770;2023-09-30T12:55:21;20.35;;;6.72;;
73571;SDS011;61854;48.510;-2.770;2023-09-30T12:57:52;14.18;;;5.55;;
73571;SDS011;61854;48.510;-2.770;2023-09-30T13:00:18;19.65;;;7.45;;
73571;SDS011;61854;48.510;-2.770;2023-09-30T13:02:44;18.52;;;7.32;;
73571;SDS011;61854;48.510;-2.770;2023-09-30T13:05:11;16.48;;;6.43;;
73571;SDS011;61854;48.510;-2.770;2023-09-30T13:07:37;13.30;;;5.47;;
73571;SDS011;61854;48.510;-2.770;2023-09-30T13:10:03;16.20;;;6.35;;
73571;SDS011;61854;48.510;-2.770;2023-09-30T13:12:30;20.13;;;6.57;;
73571;SDS011;61854;48.510;-2.770;2023-09-30T13:14:58;18.08;;;6.82;;
73571;SDS011;61854;48.510;-2.770;2023-09-30T13:17:24;18.17;;;6.47;;
73571;SDS011;61854;48.510;-2.770;2023-09-30T13:19:50;19.35;;;6.88;;
73571;SDS011;61854;48.510;-2.770;2023-09-30T13:22:16;16.10;;;6.68;;
73571;SDS011;61854;48.510;-2.770;2023-09-30T13:24:43;20.55;;;6.10;;
73571;SDS011;61854;48.510;-2.770;2023-09-30T13:27:09;14.88;;;6.28;;
73571;SDS011;61854;48.510;-2.770;2023-09-30T13:29:34;16.75;;;6.60;;
73571;SDS011;61854;48.510;-2.770;2023-09-30T13:32:00;18.15;;;6.90;;
73571;SDS011;61854;48.510;-2.770;2023-09-30T13:34:26;17.00;;;7.20;;
73571;SDS011;61854;48.510;-2.770;2023-09-30T13:36:52;15.88;;;6.47;;
73571;SDS011;61854;48.510;-2.770;2023-09-30T13:39:19;19.93;;;7.07;;
73571;SDS011;61854;48.510;-2.770;2023-09-30T13:41:46;15.98;;;6.70;;
73571;SDS011;61854;48.510;-2.770;2023-09-30T13:44:14;16.65;;;6.40;;
73571;SDS011;61854;48.510;-2.770;2023-09-30T13:46:40;20.98;;;7.82;;
73571;SDS011;61854;48.510;-2.770;2023-09-30T13:49:07;14.73;;;6.38;;
73571;SDS011;61854;48.510;-2.770;2023-09-30T13:51:33;16.35;;;7.32;;
73571;SDS011;61854;48.510;-2.770;2023-09-30T13:53:59;16.48;;;6.85;;
73571;SDS011;61854;48.510;-2.770;2023-09-30T13:56:24;15.15;;;6.03;;
73571;SDS011;61854;48.510;-2.770;2023-09-30T13:58:50;16.08;;;7.60;;
73571;SDS011;61854;48.510;-2.770;2023-09-30T14:01:17;20.38;;;7.32;;
73571;SDS011;61854;48.510;-2.770;2023-09-30T14:03:44;17.38;;;6.85;;
73571;SDS011;61854;48.510;-2.770;2023-09-30T14:06:12;14.87;;;5.77;;
73571;SDS011;61854;48.510;-2.770;2023-09-30T14:08:38;16.40;;;6.40;;
73571;SDS011;61854;48.510;-2.770;2023-09-30T14:11:04;17.73;;;6.60;;
73571;SDS011;61854;48.510;-2.770;2023-09-30T14:13:30;18.25;;;6.80;;
73571;SDS011;61854;48.510;-2.770;2023-09-30T14:15:57;18.63;;;7.00;;
73571;SDS011;61854;48.510;-2.770;2023-09-30T14:18:22;13.82;;;6.97;;
73571;SDS011;61854;48.510;-2.770;2023-09-30T14:20:48;17.85;;;6.55;;
73571;SDS011;61854;48.510;-2.770;2023-09-30T14:23:15;14.45;;;6.22;;
73571;SDS011;61854;48.510;-2.770;2023-09-30T14:25:41;13.82;;;5.40;;
73571;SDS011;61854;48.510;-2.770;2023-09-30T14:28:06;15.55;;;7.25;;
73571;SDS011;61854;48.510;-2.770;2023-09-30T14:30:32;16.13;;;6.55;;
73571;SDS011;61854;48.510;-2.770;2023-09-30T14:32:58;18.83;;;6.93;;
73571;SDS011;61854;48.510;-2.770;2023-09-30T14:35:24;10.38;;;5.82;;
73571;SDS011;61854;48.510;-2.770;2023-09-30T14:37:52;17.48;;;7.20;;
73571;SDS011;61854;48.510;-2.770;2023-09-30T14:40:19;12.88;;;6.28;;
73571;SDS011;61854;48.510;-2.770;2023-09-30T14:42:45;14.52;;;6.38;;
73571;SDS011;61854;48.510;-2.770;2023-09-30T14:45:11;14.88;;;6.57;;
73571;SDS011;61854;48.510;-2.770;2023-09-30T14:47:37;14.23;;;6.13;;
73571;SDS011;61854;48.510;-2.770;2023-09-30T14:50:05;13.05;;;6.47;;
73571;SDS011;61854;48.510;-2.770;2023-09-30T14:52:32;14.48;;;6.22;;
73571;SDS011;61854;48.510;-2.770;2023-09-30T14:54:57;16.00;;;6.38;;
73571;SDS011;61854;48.510;-2.770;2023-09-30T14:57:23;13.15;;;6.43;;
73571;SDS011;61854;48.510;-2.770;2023-09-30T14:59:50;13.65;;;6.28;;
73571;SDS011;61854;48.510;-2.770;2023-09-30T15:02:15;16.40;;;6.18;;
73571;SDS011;61854;48.510;-2.770;2023-09-30T15:04:41;15.10;;;5.90;;
73571;SDS011;61854;48.510;-2.770;2023-09-30T15:07:07;14.10;;;5.95;;
73571;SDS011;61854;48.510;-2.770;2023-09-30T15:09:33;13.02;;;6.00;;
73571;SDS011;61854;48.510;-2.770;2023-09-30T15:11:58;13.23;;;5.80;;